Time;durP1;ratioP1;P1;durP2;ratioP2;P2;SDS_P1;SDS_P2;PMS_P1;PMS_P2;Temp;Humidity;BMP_temperature;BMP_pressure;BME280_temperature;BME280_humidity;BME280_pressure;Samples;Min_cycle;Max_cycle;Signal;HPM_P1;HPM_P2
2021/06/04 00:00:33;;;;;;;19.95;17.98;;;16.70;99.90;;;;;;5003973;28;20066;-72
2021/06/04 00:03:04;;;;;;;19.65;17.65;;;16.70;99.90;;;;;;4966667;28;20101;-72
2021/06/04 00:05:36;;;;;;;20.15;18.05;;;16.80;99.90;;;;;;4979629;28;20055;-72
2021/06/04 00:08:03;;;;;;;20.45;18.45;;;16.80;99.90;;;;;;4983514;28;20051;-72
2021/06/04 00:10:34;;;;;;;20.48;18.42;;;16.80;99.90;;;;;;4967157;28;20669;-72
2021/06/04 00:13:19;;;;;;;21.55;19.25;;;17.00;99.90;;;;;;4992007;28;20053;-72
2021/06/04 00:15:47;;;;;;;20.13;17.95;;;17.00;99.90;;;;;;4998077;28;20046;-72
2021/06/04 00:18:15;;;;;;;19.67;17.77;;;16.80;99.90;;;;;;5003468;28;20057;-72
2021/06/04 00:20:43;;;;;;;20.85;18.17;;;16.70;99.90;;;;;;5002672;28;20056;-72
2021/06/04 00:23:10;;;;;;;22.48;20.02;;;16.70;99.90;;;;;;4972097;28;20754;-72
2021/06/04 00:25:37;;;;;;;21.30;19.20;;;16.70;99.90;;;;;;4978845;28;20050;-72
2021/06/04 00:28:05;;;;;;;21.77;19.48;;;16.70;99.90;;;;;;5005210;28;20368;-72
2021/06/04 00:30:32;;;;;;;20.58;18.35;;;16.70;99.90;;;;;;5005931;28;20128;-72
2021/06/04 00:32:59;;;;;;;21.65;18.30;;;16.60;99.90;;;;;;4963872;28;20042;-72
2021/06/04 00:35:28;;;;;;;19.30;17.38;;;16.60;99.90;;;;;;4986046;28;20271;-72
2021/06/04 00:37:55;;;;;;;20.95;18.75;;;16.60;99.90;;;;;;4990363;28;20050;-72
2021/06/04 00:40:27;;;;;;;21.58;18.52;;;16.60;99.90;;;;;;4998431;28;20058;-72
2021/06/04 00:42:56;;;;;;;22.15;19.25;;;16.70;99.90;;;;;;4975171;28;20072;-72
2021/06/04 00:45:30;;;;;;;22.65;19.20;;;16.80;99.90;;;;;;5002636;28;20065;-73
2021/06/04 00:47:58;;;;;;;24.92;19.25;;;16.90;99.90;;;;;;5006289;28;20054;-73
2021/06/04 00:50:30;;;;;;;23.05;20.63;;;16.90;99.90;;;;;;5005655;28;20050;-73
2021/06/04 00:52:58;;;;;;;23.40;20.92;;;16.90;99.90;;;;;;4970775;28;20073;-74
2021/06/04 00:55:26;;;;;;;25.17;21.77;;;17.00;99.90;;;;;;4982893;28;20041;-73
2021/06/04 00:57:54;;;;;;;21.92;19.20;;;16.90;99.90;;;;;;5013733;28;20097;-74
2021/06/04 01:00:31;;;;;;;21.92;19.65;;;16.80;99.90;;;;;;4993906;28;20046;-74
2021/06/04 01:02:59;;;;;;;24.15;21.65;;;16.50;99.90;;;;;;5001025;28;20062;-74
2021/06/04 01:05:29;;;;;;;23.38;20.17;;;16.30;99.90;;;;;;4985717;28;20145;-73
2021/06/04 01:08:43;;;;;;;21.45;19.08;;;16.20;99.90;;;;;;4984841;28;20058;-73
2021/06/04 01:11:24;;;;;;;25.95;19.85;;;16.10;99.90;;;;;;4962554;28;20085;-74
2021/06/04 01:14:09;;;;;;;20.73;18.38;;;16.20;99.90;;;;;;4997722;28;20158;-74
2021/06/04 01:16:53;;;;;;;23.83;21.30;;;16.30;99.90;;;;;;4981447;28;20103;-74
2021/06/04 01:19:41;;;;;;;25.85;22.92;;;16.30;99.90;;;;;;5005262;28;20104;-74
2021/06/04 01:22:34;;;;;;;25.48;22.10;;;16.30;99.90;;;;;;4985364;28;20050;-74
2021/06/04 01:25:33;;;;;;;26.52;22.33;;;16.30;99.90;;;;;;4964724;28;20493;-74
2021/06/04 01:28:07;;;;;;;24.23;21.75;;;16.40;99.90;;;;;;4985002;28;20046;-75
2021/06/04 01:30:40;;;;;;;26.23;21.45;;;16.40;99.90;;;;;;4981110;28;20380;-74
2021/06/04 01:33:14;;;;;;;23.63;21.13;;;16.40;99.90;;;;;;4959575;28;20533;-74
2021/06/04 01:35:45;;;;;;;23.52;21.02;;;16.40;99.90;;;;;;4983054;28;20101;-74
2021/06/04 01:38:17;;;;;;;28.92;22.20;;;16.40;99.90;;;;;;4984431;28;20061;-74
2021/06/04 01:40:50;;;;;;;25.88;21.45;;;16.40;99.90;;;;;;5013093;28;20164;-74
2021/06/04 01:43:25;;;;;;;26.83;22.08;;;16.40;99.90;;;;;;5023601;28;20050;-73
2021/06/04 01:45:59;;;;;;;25.48;21.65;;;16.30;99.90;;;;;;5010200;28;20045;-74
2021/06/04 01:48:31;;;;;;;25.73;22.85;;;16.30;99.90;;;;;;5018693;28;20518;-74
2021/06/04 01:51:13;;;;;;;27.13;21.17;;;16.40;99.90;;;;;;5002125;28;20084;-74
2021/06/04 01:53:52;;;;;;;23.02;20.55;;;16.40;99.90;;;;;;4985200;28;20046;-74
2021/06/04 01:56:28;;;;;;;22.85;19.73;;;16.30;99.90;;;;;;4968787;28;20057;-74
2021/06/04 01:59:01;;;;;;;23.55;20.40;;;16.30;99.90;;;;;;4983572;28;20111;-74
2021/06/04 02:01:44;;;;;;;25.02;22.08;;;16.30;99.90;;;;;;5001982;28;20487;-74
2021/06/04 02:04:17;;;;;;;22.40;20.00;;;16.30;99.90;;;;;;4966962;28;20049;-74
2021/06/04 02:06:49;;;;;;;20.23;17.65;;;16.20;99.90;;;;;;4984724;28;20521;-73
2021/06/04 02:09:21;;;;;;;22.40;19.98;;;16.10;99.90;;;;;;4985339;28;20055;-74
2021/06/04 02:11:55;;;;;;;25.67;19.67;;;16.00;99.90;;;;;;4966358;28;20050;-74
2021/06/04 02:14:31;;;;;;;22.20;19.85;;;15.90;99.90;;;;;;4950643;28;20050;-74
2021/06/04 02:17:05;;;;;;;24.52;21.20;;;15.80;99.90;;;;;;4970357;28;20085;-74
2021/06/04 02:19:37;;;;;;;25.05;19.95;;;15.90;99.90;;;;;;4996085;28;20082;-74
2021/06/04 02:22:42;;;;;;;19.55;17.08;;;16.00;99.90;;;;;;4982225;28;20058;-74
2021/06/04 02:25:18;;;;;;;20.23;17.73;;;16.00;99.90;;;;;;4983672;28;20062;-74
2021/06/04 02:27:53;;;;;;;17.95;15.95;;;16.00;99.90;;;;;;4968730;28;20046;-74
2021/06/04 02:30:37;;;;;;;18.38;16.48;;;16.00;99.90;;;;;;4982656;28;20133;-74
2021/06/04 02:33:12;;;;;;;18.55;16.08;;;15.90;99.90;;;;;;4983416;28;20050;-74
2021/06/04 02:35:51;;;;;;;19.60;16.35;;;16.00;99.90;;;;;;4952503;28;20050;-75
2021/06/04 02:38:28;;;;;;;19.13;15.32;;;16.00;99.90;;;;;;4992109;28;20070;-74
2021/06/04 02:41:21;;;;;;;19.73;16.13;;;15.90;99.90;;;;;;4993006;28;20050;-74
2021/06/04 02:43:52;;;;;;;18.20;15.25;;;15.80;99.90;;;;;;4974675;28;20521;-74
2021/06/04 02:46:28;;;;;;;19.30;16.70;;;15.80;99.90;;;;;;4994862;28;20549;-74
2021/06/04 02:48:56;;;;;;;18.25;16.15;;;15.80;99.90;;;;;;4981788;28;20046;-74
2021/06/04 02:51:41;;;;;;;16.85;15.05;;;15.70;99.90;;;;;;4967491;28;20085;-74
2021/06/04 02:54:14;;;;;;;19.70;14.65;;;15.60;99.90;;;;;;4971315;28;20046;-73
2021/06/04 02:56:47;;;;;;;16.38;14.60;;;15.60;99.90;;;;;;4967159;28;20046;-73
2021/06/04 02:59:15;;;;;;;20.30;14.85;;;15.50;99.90;;;;;;5001272;28;20042;-74
2021/06/04 03:02:02;;;;;;;14.57;13.02;;;15.50;99.90;;;;;;4979787;28;20404;-73
2021/06/04 03:04:42;;;;;;;21.38;16.42;;;15.50;99.90;;;;;;4996800;28;20115;-73
2021/06/04 03:07:17;;;;;;;24.80;18.30;;;15.30;99.90;;;;;;4984549;28;20058;-73
2021/06/04 03:09:45;;;;;;;22.17;16.27;;;15.20;99.90;;;;;;5003767;28;20046;-74
2021/06/04 03:12:22;;;;;;;21.67;17.25;;;15.20;99.90;;;;;;4982748;28;20056;-73
2021/06/04 03:14:52;;;;;;;19.60;16.30;;;15.20;99.90;;;;;;4984570;28;20158;-74
2021/06/04 03:17:23;;;;;;;17.67;15.68;;;15.20;99.90;;;;;;4986401;28;20064;-73
2021/06/04 03:19:51;;;;;;;17.95;15.77;;;15.20;99.90;;;;;;4987382;28;20080;-74
2021/06/04 03:22:27;;;;;;;19.85;16.33;;;15.20;99.90;;;;;;4994438;28;20046;-74
2021/06/04 03:25:17;;;;;;;21.58;17.58;;;15.10;99.90;;;;;;4982658;28;20506;-74
2021/06/04 03:27:46;;;;;;;21.85;16.48;;;15.10;99.90;;;;;;4983902;28;20054;-74
2021/06/04 03:30:26;;;;;;;18.50;16.15;;;15.20;99.90;;;;;;4995555;28;20076;-73
2021/06/04 03:32:53;;;;;;;17.58;14.40;;;15.00;99.90;;;;;;4992566;28;20458;-74
2021/06/04 03:35:23;;;;;;;20.08;16.70;;;15.00;99.90;;;;;;4982320;28;20251;-74
2021/06/04 03:37:55;;;;;;;17.75;14.95;;;15.10;99.90;;;;;;4969949;28;20083;-73
2021/06/04 03:40:27;;;;;;;21.23;15.02;;;15.00;99.90;;;;;;4989408;28;20066;-73
2021/06/04 03:43:02;;;;;;;18.50;15.75;;;15.00;99.90;;;;;;4989347;28;20148;-73
2021/06/04 03:45:38;;;;;;;16.33;14.63;;;14.90;99.90;;;;;;4998102;28;20046;-73
2021/06/04 03:48:09;;;;;;;16.20;13.85;;;14.80;99.90;;;;;;5002213;28;20128;-73
2021/06/04 03:50:37;;;;;;;17.02;15.23;;;14.80;99.90;;;;;;5001534;28;20046;-73
2021/06/04 03:53:07;;;;;;;17.50;14.52;;;14.90;99.90;;;;;;4971755;28;20046;-73
2021/06/04 03:55:34;;;;;;;17.33;15.45;;;14.90;99.90;;;;;;5001694;28;20053;-73
2021/06/04 03:58:01;;;;;;;17.75;15.85;;;14.80;99.90;;;;;;4996832;28;20062;-73
2021/06/04 04:00:40;;;;;;;21.38;16.95;;;14.70;99.90;;;;;;4983411;28;20096;-73
2021/06/04 04:03:08;;;;;;;21.33;17.00;;;14.70;99.90;;;;;;4978997;28;20522;-74
2021/06/04 04:05:38;;;;;;;20.30;17.85;;;14.80;99.90;;;;;;4987563;28;20184;-74
2021/06/04 04:08:06;;;;;;;24.05;20.00;;;14.80;99.90;;;;;;4986564;28;20289;-74
2021/06/04 04:10:33;;;;;;;25.05;20.05;;;14.80;99.90;;;;;;4968879;28;20046;-73
2021/06/04 04:13:01;;;;;;;23.67;19.63;;;15.00;99.90;;;;;;4995734;28;20108;-73
2021/06/04 04:15:28;;;;;;;25.48;19.35;;;15.00;99.90;;;;;;5004675;28;20513;-74
2021/06/04 04:17:58;;;;;;;25.77;20.00;;;15.00;99.90;;;;;;5006709;28;20388;-73
2021/06/04 04:20:32;;;;;;;23.85;18.98;;;15.00;99.90;;;;;;4989118;28;20054;-74
2021/06/04 04:23:00;;;;;;;20.27;17.20;;;15.10;99.90;;;;;;4966730;28;20076;-73
2021/06/04 04:25:30;;;;;;;19.33;17.20;;;15.20;99.90;;;;;;4950154;28;20478;-74
2021/06/04 04:27:58;;;;;;;21.55;17.63;;;15.20;99.90;;;;;;4965913;28;20095;-73
2021/06/04 04:30:25;;;;;;;19.85;17.73;;;15.30;99.90;;;;;;4976988;28;20042;-74
2021/06/04 04:32:52;;;;;;;18.48;16.55;;;15.30;99.90;;;;;;4985489;28;20050;-74
2021/06/04 04:35:23;;;;;;;18.70;16.77;;;15.40;99.90;;;;;;4987788;28;20078;-73
2021/06/04 04:37:50;;;;;;;19.35;17.27;;;15.50;99.90;;;;;;4968634;28;20058;-74
2021/06/04 04:40:19;;;;;;;18.15;16.35;;;15.60;99.90;;;;;;4984959;28;20062;-73
2021/06/04 04:42:46;;;;;;;16.38;14.43;;;15.60;99.90;;;;;;4993040;28;20054;-73
2021/06/04 04:45:15;;;;;;;17.67;15.88;;;15.70;99.90;;;;;;4967463;28;20046;-73
2021/06/04 04:47:42;;;;;;;17.55;15.50;;;15.80;99.90;;;;;;4986727;28;20658;-73
2021/06/04 04:50:14;;;;;;;15.73;14.20;;;15.80;99.90;;;;;;4979984;28;20471;-74
2021/06/04 04:52:41;;;;;;;13.73;12.32;;;16.00;99.90;;;;;;4977973;23;20499;-77
2021/06/04 04:55:09;;;;;;;14.75;13.32;;;16.10;99.90;;;;;;4975418;28;20401;-78
2021/06/04 04:57:36;;;;;;;14.27;12.93;;;16.10;99.90;;;;;;4937989;28;20054;-78
2021/06/04 05:00:10;;;;;;;15.77;14.07;;;16.20;99.90;;;;;;4940405;28;20047;-77
2021/06/04 05:02:36;;;;;;;15.35;13.75;;;16.10;99.90;;;;;;4954073;28;20432;-78
2021/06/04 05:05:06;;;;;;;15.77;14.13;;;16.10;99.90;;;;;;4930198;28;20039;-77
2021/06/04 05:07:32;;;;;;;15.93;14.43;;;16.20;99.90;;;;;;4953186;28;20050;-77
2021/06/04 05:09:59;;;;;;;18.98;16.98;;;16.10;99.90;;;;;;4938391;28;20054;-78
2021/06/04 05:12:26;;;;;;;19.40;16.33;;;16.20;99.90;;;;;;4925393;28;20116;-77
2021/06/04 05:14:53;;;;;;;19.27;17.02;;;16.30;99.90;;;;;;4957175;28;20109;-78
2021/06/04 05:17:20;;;;;;;18.90;16.92;;;16.60;99.90;;;;;;4961451;28;20122;-77
2021/06/04 05:19:48;;;;;;;18.92;16.67;;;16.60;99.90;;;;;;4937518;28;20065;-78
2021/06/04 05:22:15;;;;;;;18.02;16.25;;;16.80;99.90;;;;;;4937165;28;20047;-77
2021/06/04 05:24:44;;;;;;;16.67;14.98;;;16.70;99.90;;;;;;4955144;28;20086;-78
2021/06/04 05:27:12;;;;;;;19.20;17.40;;;16.90;99.90;;;;;;4952995;28;20054;-77
2021/06/04 05:29:40;;;;;;;17.48;15.65;;;17.00;99.90;;;;;;4912826;28;20039;-78
2021/06/04 05:32:08;;;;;;;18.60;16.80;;;17.00;99.90;;;;;;4969050;28;20047;-77
2021/06/04 05:34:36;;;;;;;18.17;16.35;;;17.10;99.90;;;;;;4944937;28;20110;-78
2021/06/04 05:37:05;;;;;;;18.80;17.08;;;17.20;99.90;;;;;;4944060;28;20053;-78
2021/06/04 05:39:32;;;;;;;18.58;16.77;;;17.20;99.90;;;;;;4953681;28;20097;-78
2021/06/04 05:42:02;;;;;;;18.83;16.92;;;17.10;99.90;;;;;;4953783;28;20057;-78
2021/06/04 05:44:32;;;;;;;17.75;16.02;;;17.30;99.90;;;;;;4944688;28;20054;-78
2021/06/04 05:47:04;;;;;;;17.45;15.77;;;17.40;99.90;;;;;;4962066;28;20047;-78
2021/06/04 05:49:31;;;;;;;18.17;16.48;;;17.50;99.90;;;;;;4921935;28;20527;-79
2021/06/04 05:52:00;;;;;;;19.02;17.33;;;17.70;99.90;;;;;;4957835;28;20053;-79
2021/06/04 05:54:27;;;;;;;20.33;18.27;;;17.80;99.90;;;;;;4929232;28;20568;-78
2021/06/04 05:56:55;;;;;;;17.10;15.50;;;18.00;99.90;;;;;;4969191;28;20042;-78
2021/06/04 05:59:22;;;;;;;19.00;17.30;;;17.90;99.90;;;;;;4952307;28;20157;-79
2021/06/04 06:01:49;;;;;;;19.50;17.48;;;17.80;99.90;;;;;;4922116;28;20413;-78
2021/06/04 06:04:16;;;;;;;17.98;16.30;;;17.90;99.90;;;;;;4936302;28;20107;-79
2021/06/04 06:06:44;;;;;;;17.52;15.75;;;18.20;99.90;;;;;;4933492;29;20056;-78
2021/06/04 06:09:11;;;;;;;19.35;17.45;;;18.30;99.90;;;;;;4935746;29;20121;-79
2021/06/04 06:11:38;;;;;;;18.80;16.95;;;18.30;99.90;;;;;;4917718;29;20390;-79
2021/06/04 06:14:07;;;;;;;19.63;17.65;;;18.40;99.90;;;;;;4947403;28;20130;-79
2021/06/04 06:16:34;;;;;;;19.27;17.45;;;18.30;99.90;;;;;;4921255;28;20043;-79
2021/06/04 06:19:01;;;;;;;18.73;16.92;;;18.40;99.90;;;;;;4935154;28;20045;-79
2021/06/04 06:21:28;;;;;;;18.55;16.75;;;18.50;99.90;;;;;;4920174;28;20062;-78
2021/06/04 06:23:56;;;;;;;18.75;17.05;;;18.70;99.90;;;;;;4958720;28;20122;-79
2021/06/04 06:26:28;;;;;;;20.13;18.13;;;18.90;99.90;;;;;;4920505;28;20153;-78
2021/06/04 06:28:56;;;;;;;21.58;19.58;;;19.00;99.90;;;;;;4943098;28;20080;-79
2021/06/04 06:31:29;;;;;;;20.13;18.20;;;19.20;99.90;;;;;;4926249;28;20050;-79
2021/06/04 06:33:56;;;;;;;18.25;16.38;;;19.40;99.90;;;;;;4948891;28;20138;-78
2021/06/04 06:36:27;;;;;;;17.80;16.20;;;19.70;99.90;;;;;;4950047;28;20053;-79
2021/06/04 06:38:55;;;;;;;18.38;16.52;;;20.10;99.90;;;;;;4919941;28;20115;-80
2021/06/04 06:41:25;;;;;;;17.83;16.40;;;20.50;99.90;;;;;;4918967;28;20042;-79
2021/06/04 06:43:52;;;;;;;18.17;16.63;;;20.80;99.90;;;;;;4938964;28;20118;-79
2021/06/04 06:46:22;;;;;;;18.10;16.60;;;21.10;99.90;;;;;;4948677;28;20059;-79
2021/06/04 06:48:49;;;;;;;20.80;18.95;;;21.50;99.90;;;;;;4921170;28;20047;-79
2021/06/04 06:51:17;;;;;;;22.15;20.08;;;21.80;99.90;;;;;;4934782;28;20444;-80
2021/06/04 06:53:44;;;;;;;20.20;18.50;;;21.80;99.90;;;;;;4921000;28;20045;-78
2021/06/04 06:56:14;;;;;;;22.70;20.77;;;22.00;99.90;;;;;;4921015;28;20046;-77
2021/06/04 06:58:41;;;;;;;23.05;21.23;;;22.20;99.90;;;;;;4934507;28;20054;-77
2021/06/04 07:01:09;;;;;;;25.55;23.35;;;22.30;99.90;;;;;;4922647;28;20089;-77
2021/06/04 07:03:39;;;;;;;25.55;23.25;;;22.10;99.90;;;;;;4962074;28;20113;-78
2021/06/04 07:06:20;;;;;;;24.05;21.85;;;21.70;99.90;;;;;;4943254;29;20074;-79
2021/06/04 07:08:47;;;;;;;24.58;22.38;;;21.60;99.90;;;;;;4917306;29;20714;-79
2021/06/04 07:11:16;;;;;;;29.35;26.50;;;21.70;99.90;;;;;;4932749;29;20162;-78
2021/06/04 07:13:43;;;;;;;32.70;29.35;;;21.70;99.90;;;;;;4941179;28;20046;-78
2021/06/04 07:16:13;;;;;;;30.05;26.67;;;21.40;99.90;;;;;;4946889;28;20073;-77
2021/06/04 07:18:40;;;;;;;32.35;28.17;;;21.20;99.90;;;;;;4952272;28;20055;-78
2021/06/04 07:21:11;;;;;;;35.95;32.35;;;21.30;99.90;;;;;;4952547;28;20057;-79
2021/06/04 07:23:38;;;;;;;31.85;28.80;;;21.60;99.90;;;;;;4920967;28;20053;-79
2021/06/04 07:26:05;;;;;;;32.42;29.33;;;21.80;99.90;;;;;;4919742;28;20720;-79
2021/06/04 07:28:34;;;;;;;28.40;25.60;;;21.60;99.90;;;;;;4953892;28;20061;-79
2021/06/04 07:31:04;;;;;;;29.67;26.45;;;21.60;99.90;;;;;;4952329;28;20251;-78
2021/06/04 07:33:38;;;;;;;28.90;25.92;;;21.70;99.90;;;;;;4959822;28;20054;-78
2021/06/04 07:36:09;;;;;;;28.65;25.95;;;22.10;99.90;;;;;;4962518;28;20664;-79
2021/06/04 07:38:36;;;;;;;31.45;28.30;;;22.50;99.90;;;;;;4948299;28;20084;-78
2021/06/04 07:41:05;;;;;;;31.77;28.55;;;22.80;99.90;;;;;;4965300;28;20476;-79
2021/06/04 07:43:35;;;;;;;32.15;29.02;;;22.60;99.90;;;;;;4943314;28;20078;-80
2021/06/04 07:46:04;;;;;;;30.92;27.88;;;22.50;99.90;;;;;;4944699;28;20042;-80
2021/06/04 07:48:31;;;;;;;29.73;27.00;;;22.60;99.90;;;;;;4925222;28;20055;-79
2021/06/04 07:50:59;;;;;;;31.13;28.25;;;22.80;99.90;;;;;;4940670;28;20039;-79
2021/06/04 07:53:29;;;;;;;31.38;28.40;;;23.10;99.90;;;;;;4955760;28;20749;-79
2021/06/04 07:55:57;;;;;;;32.00;28.95;;;23.10;99.90;;;;;;4937726;28;20061;-80
2021/06/04 07:58:26;;;;;;;31.40;28.50;;;23.30;99.90;;;;;;4919392;29;20087;-79
2021/06/04 08:00:53;;;;;;;32.35;29.30;;;23.20;99.90;;;;;;4933222;29;20187;-79
2021/06/04 08:03:24;;;;;;;32.38;29.52;;;23.40;99.90;;;;;;4931551;28;20810;-79
2021/06/04 08:05:51;;;;;;;26.58;24.17;;;23.40;99.90;;;;;;4938714;28;20065;-79
2021/06/04 08:08:20;;;;;;;30.52;27.90;;;23.40;99.90;;;;;;4940879;28;20275;-79
2021/06/04 08:10:47;;;;;;;32.70;29.80;;;23.60;99.90;;;;;;4922239;28;20050;-80
2021/06/04 08:13:15;;;;;;;30.60;27.90;;;23.80;99.90;;;;;;4942255;28;20042;-80
2021/06/04 08:15:49;;;;;;;32.75;29.95;;;23.90;99.90;;;;;;4958545;28;20106;-78
2021/06/04 08:18:19;;;;;;;34.60;31.60;;;24.10;99.90;;;;;;4939706;28;20073;-79
2021/06/04 08:20:47;;;;;;;37.92;34.60;;;24.10;99.90;;;;;;4923835;28;20047;-80
2021/06/04 08:23:20;;;;;;;39.80;36.30;;;24.10;99.90;;;;;;4924834;28;20058;-78
2021/06/04 08:25:49;;;;;;;37.47;34.05;;;23.80;99.90;;;;;;4937848;28;20049;-80
2021/06/04 08:43:51;;;;;;;38.63;35.13;;;23.60;99.90;;;;;;5102088;27;20375;-71
2021/06/04 08:46:28;;;;;;;38.40;34.85;;;24.20;99.90;;;;;;5085698;28;20413;-71
2021/06/04 08:49:16;;;;;;;37.60;34.28;;;24.20;99.90;;;;;;5060358;28;20045;-71
2021/06/04 08:51:56;;;;;;;36.72;33.30;;;24.20;99.90;;;;;;5066441;28;20064;-72
2021/06/04 08:54:54;;;;;;;33.05;30.17;;;24.30;99.90;;;;;;5074137;28;20637;-72
2021/06/04 08:57:32;;;;;;;38.40;35.00;;;24.60;99.90;;;;;;5077085;28;20123;-72
2021/06/04 09:00:00;;;;;;;36.53;33.22;;;24.90;99.90;;;;;;5059999;28;20134;-72
2021/06/04 09:02:38;;;;;;;35.97;32.80;;;25.30;99.90;;;;;;5066736;28;20601;-72
2021/06/04 09:05:12;;;;;;;36.42;33.08;;;25.20;99.90;;;;;;5059819;28;20605;-72
2021/06/04 09:07:44;;;;;;;31.57;28.87;;;25.20;99.90;;;;;;5042628;28;20190;-71
2021/06/04 09:10:22;;;;;;;34.47;31.38;;;25.40;99.90;;;;;;5059863;28;20563;-72
2021/06/04 09:13:00;;;;;;;34.92;31.35;;;25.40;99.90;;;;;;5047826;28;20040;-72
2021/06/04 09:15:31;;;;;;;33.15;30.08;;;25.30;99.90;;;;;;5054306;28;20763;-72
2021/06/04 09:18:04;;;;;;;31.52;28.40;;;25.30;99.90;;;;;;5059644;28;20048;-72
2021/06/04 09:20:44;;;;;;;31.90;29.20;;;25.30;99.90;;;;;;5064570;28;20073;-71
2021/06/04 09:23:14;;;;;;;34.35;31.45;;;25.00;99.90;;;;;;5052124;28;20045;-72
2021/06/04 09:25:42;;;;;;;32.78;30.17;;;24.90;99.90;;;;;;5059550;28;20041;-72
2021/06/04 09:28:09;;;;;;;33.60;30.73;;;25.10;99.90;;;;;;5058200;28;20052;-71
2021/06/04 09:30:45;;;;;;;31.88;29.08;;;25.30;99.90;;;;;;5059429;28;20095;-71
2021/06/04 09:33:22;;;;;;;30.95;28.27;;;25.10;99.90;;;;;;5054928;28;20049;-71
2021/06/04 09:36:14;;;;;;;31.10;28.23;;;25.20;99.90;;;;;;5056781;28;20445;-72
2021/06/04 09:39:04;;;;;;;31.63;28.77;;;25.30;99.90;;;;;;5048319;28;20045;-74
2021/06/04 09:41:40;;;;;;;30.98;28.27;;;25.30;99.90;;;;;;5038320;28;20702;-74
2021/06/04 09:44:21;;;;;;;31.85;28.73;;;25.50;99.90;;;;;;5017852;28;20380;-74
2021/06/04 09:46:53;;;;;;;29.20;26.42;;;25.40;99.90;;;;;;5044962;28;20442;-74
2021/06/04 09:49:43;;;;;;;32.47;29.58;;;25.30;99.90;;;;;;5044960;28;20442;-74
2021/06/04 09:52:35;;;;;;;32.15;29.55;;;25.00;99.90;;;;;;5045913;28;20690;-73
2021/06/04 09:55:21;;;;;;;31.35;28.75;;;25.00;99.90;;;;;;5044180;28;20248;-74
2021/06/04 09:58:17;;;;;;;29.40;26.60;;;25.20;99.90;;;;;;5011720;28;20060;-74
2021/06/04 10:00:57;;;;;;;29.52;26.92;;;25.20;99.90;;;;;;5035352;28;20045;-73
2021/06/04 10:03:42;;;;;;;32.35;29.42;;;25.40;99.90;;;;;;5039448;28;20064;-73
2021/06/04 10:06:28;;;;;;;33.55;30.73;;;25.50;99.90;;;;;;5025875;28;20118;-73
2021/06/04 10:09:28;;;;;;;31.02;28.05;;;25.40;99.90;;;;;;5024889;28;20045;-73
2021/06/04 10:11:59;;;;;;;29.25;26.65;;;25.40;99.90;;;;;;5014894;28;20415;-73
2021/06/04 10:14:50;;;;;;;30.67;27.75;;;25.40;99.90;;;;;;5038013;28;20053;-73
2021/06/04 10:17:41;;;;;;;32.65;29.63;;;25.40;99.90;;;;;;5045386;28;20056;-74
2021/06/04 10:20:39;;;;;;;29.98;27.08;;;25.20;99.90;;;;;;5046668;28;20123;-73
2021/06/04 10:23:09;;;;;;;28.65;26.17;;;25.20;99.90;;;;;;5042099;28;20498;-73
2021/06/04 10:25:59;;;;;;;30.40;27.60;;;25.50;99.90;;;;;;5027876;28;20098;-73
2021/06/04 10:28:25;;;;;;;30.17;27.67;;;25.90;99.90;;;;;;5028129;28;20527;-73
2021/06/04 10:30:55;;;;;;;29.00;26.80;;;26.20;99.90;;;;;;5045067;28;20037;-74
2021/06/04 10:33:46;;;;;;;29.67;27.23;;;26.60;99.90;;;;;;5042453;28;20056;-74
2021/06/04 10:36:17;;;;;;;31.15;28.42;;;26.90;99.90;;;;;;5042395;28;20611;-74
2021/06/04 10:39:09;;;;;;;31.77;28.90;;;27.00;99.90;;;;;;5045657;28;20052;-73
2021/06/04 10:42:02;;;;;;;30.35;27.85;;;26.70;99.90;;;;;;5056150;28;20052;-72
2021/06/04 10:44:41;;;;;;;30.08;27.63;;;26.20;99.90;;;;;;5014974;28;20057;-73
2021/06/04 10:47:16;;;;;;;29.40;26.65;;;26.40;99.90;;;;;;5036780;28;20060;-73
2021/06/04 10:50:05;;;;;;;26.70;24.48;;;26.40;99.90;;;;;;5058691;28;20056;-73
2021/06/04 10:52:56;;;;;;;31.67;28.98;;;26.10;99.90;;;;;;5075429;28;20326;-72
2021/06/04 10:55:35;;;;;;;29.88;27.55;;;25.90;99.90;;;;;;5064241;28;20108;-72
2021/06/04 10:58:21;;;;;;;27.80;25.58;;;26.10;99.90;;;;;;5049268;28;20050;-73
2021/06/04 11:00:57;;;;;;;27.75;25.33;;;26.40;99.90;;;;;;5026144;28;20052;-74
2021/06/04 11:03:34;;;;;;;25.88;23.70;;;26.80;99.90;;;;;;5040993;28;20056;-74
2021/06/04 11:06:24;;;;;;;25.70;23.90;;;27.10;99.90;;;;;;5039648;28;20053;-74
2021/06/04 11:09:11;;;;;;;27.00;24.98;;;27.20;99.90;;;;;;5044560;28;20135;-73
2021/06/04 11:11:59;;;;;;;30.35;27.65;;;27.30;99.90;;;;;;5032912;28;20376;-73
2021/06/04 11:14:54;;;;;;;28.90;26.65;;;27.40;99.90;;;;;;5032407;28;20446;-73
2021/06/04 11:17:29;;;;;;;26.65;24.65;;;27.10;99.90;;;;;;5027071;28;20056;-73
2021/06/04 11:20:17;;;;;;;25.35;23.55;;;27.00;99.90;;;;;;5024301;28;20053;-73
2021/06/04 11:22:50;;;;;;;26.88;24.65;;;27.10;99.90;;;;;;5028318;28;20154;-73
2021/06/04 11:25:33;;;;;;;26.30;24.30;;;27.30;99.90;;;;;;5027176;28;20092;-74
2021/06/04 11:28:15;;;;;;;27.52;25.38;;;27.60;99.90;;;;;;5044826;28;20351;-74
2021/06/04 11:30:43;;;;;;;26.08;23.88;;;27.30;99.90;;;;;;5042538;28;20060;-73
2021/06/04 11:33:19;;;;;;;25.55;23.52;;;27.30;99.90;;;;;;5043901;28;20053;-73
2021/06/04 11:35:59;;;;;;;25.00;23.15;;;27.70;99.90;;;;;;5042790;28;20103;-77
2021/06/04 11:38:47;;;;;;;25.52;23.45;;;27.70;99.90;;;;;;5025534;28;20111;-77
2021/06/04 11:41:26;;;;;;;23.75;21.65;;;27.50;99.90;;;;;;5043714;28;20057;-77
2021/06/04 11:44:03;;;;;;;23.98;22.17;;;27.30;99.90;;;;;;5011283;28;20053;-78
2021/06/04 11:46:33;;;;;;;24.02;22.30;;;27.00;99.90;;;;;;5038760;28;20049;-77
2021/06/04 11:49:08;;;;;;;25.38;23.48;;;27.20;99.90;;;;;;5030189;28;20053;-77
2021/06/04 11:51:37;;;;;;;;;;;27.00;99.90;;;;;;5028493;28;20041;-77
2021/06/04 11:54:29;;;;;;;26.02;23.92;;;27.00;99.90;;;;;;5038811;28;19920;-77
2021/06/04 11:57:10;;;;;;;25.25;23.25;;;27.10;99.90;;;;;;5047417;28;20041;-77
2021/06/04 11:59:45;;;;;;;25.48;23.58;;;27.50;99.90;;;;;;5048880;28;20064;-76
2021/06/04 12:02:50;;;;;;;26.27;24.17;;;27.60;99.90;;;;;;5035999;28;20707;-76
2021/06/04 12:05:17;;;;;;;24.15;22.33;;;27.60;99.90;;;;;;5031235;28;20497;-77
2021/06/04 12:08:24;;;;;;;28.17;26.10;;;27.80;99.90;;;;;;5036285;28;20052;-77
2021/06/04 12:11:12;;;;;;;26.08;23.77;;;27.90;99.90;;;;;;5029804;28;20053;-77
2021/06/04 12:13:46;;;;;;;23.95;22.35;;;28.00;99.90;;;;;;5030328;28;20083;-76
2021/06/04 12:16:29;;;;;;;25.55;23.55;;;27.90;99.90;;;;;;5029323;28;20045;-77
2021/06/04 12:19:16;;;;;;;25.80;23.95;;;27.80;99.90;;;;;;5008094;28;20507;-76
2021/06/04 12:21:44;;;;;;;26.20;24.30;;;27.40;99.90;;;;;;5027414;28;20045;-75
2021/06/04 12:24:17;;;;;;;24.45;22.65;;;26.80;99.90;;;;;;5024595;28;20528;-75
2021/06/04 12:27:10;;;;;;;25.80;23.80;;;27.30;99.90;;;;;;5023315;28;20038;-75
2021/06/04 12:29:40;;;;;;;23.50;21.83;;;27.90;99.90;;;;;;4995221;28;20521;-76
2021/06/04 12:32:16;;;;;;;25.05;23.20;;;28.30;99.90;;;;;;5029064;28;20206;-76
2021/06/04 12:34:47;;;;;;;23.83;21.83;;;28.50;99.90;;;;;;5024444;28;20087;-76
2021/06/04 12:37:20;;;;;;;23.63;21.73;;;28.70;99.90;;;;;;5040463;28;20149;-76
2021/06/04 12:40:12;;;;;;;23.77;22.08;;;28.60;99.90;;;;;;5029765;28;20053;-76
2021/06/04 12:43:02;;;;;;;23.25;21.45;;;28.60;99.90;;;;;;5049166;28;20052;-76
2021/06/04 12:45:36;;;;;;;23.83;22.08;;;28.90;99.90;;;;;;5047225;28;20053;-76
2021/06/04 12:48:11;;;;;;;23.33;21.50;;;28.90;99.90;;;;;;5043387;28;20048;-76
2021/06/04 12:50:43;;;;;;;22.95;21.42;;;28.50;99.90;;;;;;5047783;28;20053;-77
2021/06/04 12:53:30;;;;;;;22.77;20.98;;;28.40;99.90;;;;;;5031223;28;20052;-77
2021/06/04 12:56:01;;;;;;;23.77;21.70;;;28.30;99.90;;;;;;5024965;28;20054;-76
2021/06/04 12:58:41;;;;;;;22.73;20.83;;;28.50;99.90;;;;;;5037395;28;20029;-76
2021/06/04 13:01:20;;;;;;;21.27;19.77;;;28.70;99.90;;;;;;5043090;28;20052;-76
2021/06/04 13:03:55;;;;;;;21.60;19.80;;;28.80;99.90;;;;;;5032072;28;20049;-76
2021/06/04 13:06:42;;;;;;;21.27;19.60;;;29.10;99.90;;;;;;5037941;28;20103;-76
2021/06/04 13:09:23;;;;;;;24.33;22.50;;;29.50;99.90;;;;;;5041630;28;20049;-76
2021/06/04 13:11:49;;;;;;;23.52;22.00;;;29.40;99.90;;;;;;5021429;28;20670;-76
2021/06/04 13:14:21;;;;;;;27.90;25.85;;;29.40;99.90;;;;;;5022886;28;20041;-76
2021/06/04 13:16:49;;;;;;;76.35;31.65;;;29.50;99.90;;;;;;5027275;28;20056;-76
2021/06/04 13:19:25;;;;;;;24.67;22.77;;;29.40;99.90;;;;;;5044960;28;20053;-75